sensor_id;sensor_type;location;lat;lon;timestamp;temperature;humidity
10046;DHT22;5063;50.878;4.742;2023-10-13T00:00:35;17.70;99.90
10046;DHT22;5063;50.878;4.742;2023-10-13T00:03:06;17.70;99.90
10046;DHT22;5063;50.878;4.742;2023-10-13T00:05:34;17.70;99.90
10046;DHT22;5063;50.878;4.742;2023-10-13T00:08:00;17.70;99.90
10046;DHT22;5063;50.878;4.742;2023-10-13T00:10:28;17.70;99.90
10046;DHT22;5063;50.878;4.742;2023-10-13T00:12:54;17.70;99.90
10046;DHT22;5063;50.878;4.742;2023-10-13T00:15:19;17.70;99.90
10046;DHT22;5063;50.878;4.742;2023-10-13T00:17:53;17.70;99.90
10046;DHT22;5063;50.878;4.742;2023-10-13T00:20:21;17.70;99.90
10046;DHT22;5063;50.878;4.742;2023-10-13T00:23:03;17.70;99.90
10046;DHT22;5063;50.878;4.742;2023-10-13T00:25:29;17.70;99.90
10046;DHT22;5063;50.878;4.742;2023-10-13T00:28:09;17.70;99.90
10046;DHT22;5063;50.878;4.742;2023-10-13T00:30:35;17.70;99.90
10046;DHT22;5063;50.878;4.742;2023-10-13T00:33:00;17.70;99.90
10046;DHT22;5063;50.878;4.742;2023-10-13T00:35:27;17.70;99.90
10046;DHT22;5063;50.878;4.742;2023-10-13T00:37:58;17.70;99.90
10046;DHT22;5063;50.878;4.742;2023-10-13T00:40:30;17.70;99.90
10046;DHT22;5063;50.878;4.742;2023-10-13T00:43:00;17.70;99.90
10046;DHT22;5063;50.878;4.742;2023-10-13T00:45:45;17.80;99.90
10046;DHT22;5063;50.878;4.742;2023-10-13T00:48:22;17.80;99.90
10046;DHT22;5063;50.878;4.742;2023-10-13T00:50:59;17.80;99.90
10046;DHT22;5063;50.878;4.742;2023-10-13T00:53:32;17.90;99.90
10046;DHT22;5063;50.878;4.742;2023-10-13T00:56:06;17.90;99.90
10046;DHT22;5063;50.878;4.742;2023-10-13T00:58:36;18.00;99.90
10046;DHT22;5063;50.878;4.742;2023-10-13T01:01:05;18.00;99.90
10046;DHT22;5063;50.878;4.742;2023-10-13T01:03:53;18.00;99.90
10046;DHT22;5063;50.878;4.742;2023-10-13T01:06:28;18.00;99.90
10046;DHT22;5063;50.878;4.742;2023-10-13T01:09:05;18.10;99.90
10046;DHT22;5063;50.878;4.742;2023-10-13T01:11:48;18.00;99.90
10046;DHT22;5063;50.878;4.742;2023-10-13T01:14:18;18.10;99.90
10046;DHT22;5063;50.878;4.742;2023-10-13T01:16:46;18.10;99.90
10046;DHT22;5063;50.878;4.742;2023-10-13T01:19:16;18.10;99.90
10046;DHT22;5063;50.878;4.742;2023-10-13T01:21:50;18.00;99.90
10046;DHT22;5063;50.878;4.742;2023-10-13T01:24:21;18.00;99.90
10046;DHT22;5063;50.878;4.742;2023-10-13T01:26:50;18.00;99.90
10046;DHT22;5063;50.878;4.742;2023-10-13T01:29:18;18.00;99.90
10046;DHT22;5063;50.878;4.742;2023-10-13T01:31:46;17.90;99.90
10046;DHT22;5063;50.878;4.742;2023-10-13T01:34:16;18.00;99.90
10046;DHT22;5063;50.878;4.742;2023-10-13T01:36:52;18.00;99.90
10046;DHT22;5063;50.878;4.742;2023-10-13T01:39:24;18.00;99.90
10046;DHT22;5063;50.878;4.742;2023-10-13T01:41:57;18.00;99.90
10046;DHT22;5063;50.878;4.742;2023-10-13T01:44:26;18.00;99.90
10046;DHT22;5063;50.878;4.742;2023-10-13T01:46:56;18.00;99.90
10046;DHT22;5063;50.878;4.742;2023-10-13T01:49:25;18.00;99.90
10046;DHT22;5063;50.878;4.742;2023-10-13T01:51:51;18.00;99.90
10046;DHT22;5063;50.878;4.742;2023-10-13T01:54:17;17.90;99.90
10046;DHT22;5063;50.878;4.742;2023-10-13T01:56:43;17.90;99.90
10046;DHT22;5063;50.878;4.742;2023-10-13T01:59:13;17.90;99.90
10046;DHT22;5063;50.878;4.742;2023-10-13T02:01:39;17.90;99.90
10046;DHT22;5063;50.878;4.742;2023-10-13T02:04:09;17.90;99.90
10046;DHT22;5063;50.878;4.742;2023-10-13T02:06:36;17.90;99.90
10046;DHT22;5063;50.878;4.742;2023-10-13T02:09:04;18.00;99.90
10046;DHT22;5063;50.878;4.742;2023-10-13T02:11:43;17.90;99.90
10046;DHT22;5063;50.878;4.742;2023-10-13T02:14:20;17.90;99.90
10046;DHT22;5063;50.878;4.742;2023-10-13T02:16:48;17.90;99.90
10046;DHT22;5063;50.878;4.742;2023-10-13T02:19:16;17.90;99.90
10046;DHT22;5063;50.878;4.742;2023-10-13T02:21:44;17.90;99.90
10046;DHT22;5063;50.878;4.742;2023-10-13T02:24:11;17.90;99.90
10046;DHT22;5063;50.878;4.742;2023-10-13T02:26:46;17.90;99.90
10046;DHT22;5063;50.878;4.742;2023-10-13T02:29:12;17.90;99.90
10046;DHT22;5063;50.878;4.742;2023-10-13T02:31:43;17.80;99.90
10046;DHT22;5063;50.878;4.742;2023-10-13T02:34:20;17.90;99.90
10046;DHT22;5063;50.878;4.742;2023-10-13T02:36:48;17.90;99.90
10046;DHT22;5063;50.878;4.742;2023-10-13T02:39:19;17.90;99.90
10046;DHT22;5063;50.878;4.742;2023-10-13T02:41:53;17.90;99.90
10046;DHT22;5063;50.878;4.742;2023-10-13T02:44:21;17.90;99.90
10046;DHT22;5063;50.878;4.742;2023-10-13T02:46:54;18.00;99.90
10046;DHT22;5063;50.878;4.742;2023-10-13T02:49:30;18.00;99.90
10046;DHT22;5063;50.878;4.742;2023-10-13T02:52:02;18.10;99.90
10046;DHT22;5063;50.878;4.742;2023-10-13T02:54:33;18.00;99.90
10046;DHT22;5063;50.878;4.742;2023-10-13T02:57:05;18.00;99.90
10046;DHT22;5063;50.878;4.742;2023-10-13T02:59:32;18.00;99.90
10046;DHT22;5063;50.878;4.742;2023-10-13T03:02:12;18.10;99.90
10046;DHT22;5063;50.878;4.742;2023-10-13T03:04:56;18.10;99.90
10046;DHT22;5063;50.878;4.742;2023-10-13T03:07:26;18.00;99.90
10046;DHT22;5063;50.878;4.742;2023-10-13T03:09:56;18.00;99.90
10046;DHT22;5063;50.878;4.742;2023-10-13T03:12:35;18.10;99.90
10046;DHT22;5063;50.878;4.742;2023-10-13T03:15:02;18.00;99.90
10046;DHT22;5063;50.878;4.742;2023-10-13T03:17:45;18.10;99.90
10046;DHT22;5063;50.878;4.742;2023-10-13T03:20:15;18.10;99.90
10046;DHT22;5063;50.878;4.742;2023-10-13T03:22:45;18.10;99.90
10046;DHT22;5063;50.878;4.742;2023-10-13T03:25:11;18.10;99.90
10046;DHT22;5063;50.878;4.742;2023-10-13T03:27:43;18.10;99.90
10046;DHT22;5063;50.878;4.742;2023-10-13T03:30:19;18.10;99.90
10046;DHT22;5063;50.878;4.742;2023-10-13T03:32:47;18.10;99.90
10046;DHT22;5063;50.878;4.742;2023-10-13T03:35:19;18.10;99.90
10046;DHT22;5063;50.878;4.742;2023-10-13T03:37:54;18.10;99.90
10046;DHT22;5063;50.878;4.742;2023-10-13T03:40:21;18.10;99.90
10046;DHT22;5063;50.878;4.742;2023-10-13T03:45:38;18.10;99.90
10046;DHT22;5063;50.878;4.742;2023-10-13T03:48:17;18.10;99.90
10046;DHT22;5063;50.878;4.742;2023-10-13T03:50:53;18.20;99.90
10046;DHT22;5063;50.878;4.742;2023-10-13T03:53:32;18.00;99.90
10046;DHT22;5063;50.878;4.742;2023-10-13T03:56:00;18.10;99.90
10046;DHT22;5063;50.878;4.742;2023-10-13T03:58:40;18.10;99.90
10046;DHT22;5063;50.878;4.742;2023-10-13T04:01:11;18.20;99.90
10046;DHT22;5063;50.878;4.742;2023-10-13T04:03:40;18.20;99.90
10046;DHT22;5063;50.878;4.742;2023-10-13T04:06:23;18.20;99.90
10046;DHT22;5063;50.878;4.742;2023-10-13T04:09:09;18.20;99.90
10046;DHT22;5063;50.878;4.742;2023-10-13T04:12:00;18.20;99.90
10046;DHT22;5063;50.878;4.742;2023-10-13T04:14:35;18.20;99.90
10046;DHT22;5063;50.878;4.742;2023-10-13T04:17:07;18.20;99.90
10046;DHT22;5063;50.878;4.742;2023-10-13T04:19:43;18.10;99.90
10046;DHT22;5063;50.878;4.742;2023-10-13T04:22:27;18.20;99.90
10046;DHT22;5063;50.878;4.742;2023-10-13T04:25:24;18.20;99.90
10046;DHT22;5063;50.878;4.742;2023-10-13T04:28:07;18.20;99.90
10046;DHT22;5063;50.878;4.742;2023-10-13T04:30:47;18.20;99.90
10046;DHT22;5063;50.878;4.742;2023-10-13T04:33:13;18.20;99.90
10046;DHT22;5063;50.878;4.742;2023-10-13T04:36:14;18.10;99.90
10046;DHT22;5063;50.878;4.742;2023-10-13T04:38:50;18.20;99.90
10046;DHT22;5063;50.878;4.742;2023-10-13T04:44:08;18.10;99.90
10046;DHT22;5063;50.878;4.742;2023-10-13T04:46:54;18.10;99.90
10046;DHT22;5063;50.878;4.742;2023-10-13T04:49:36;18.10;99.90
10046;DHT22;5063;50.878;4.742;2023-10-13T04:52:05;18.20;99.90
10046;DHT22;5063;50.878;4.742;2023-10-13T04:54:35;18.10;99.90
10046;DHT22;5063;50.878;4.742;2023-10-13T04:57:16;18.10;99.90
10046;DHT22;5063;50.878;4.742;2023-10-13T05:00:07;18.20;99.90
10046;DHT22;5063;50.878;4.742;2023-10-13T05:02:43;18.20;99.90
10046;DHT22;5063;50.878;4.742;2023-10-13T05:05:43;18.10;99.90
10046;DHT22;5063;50.878;4.742;2023-10-13T05:08:27;18.10;99.90
10046;DHT22;5063;50.878;4.742;2023-10-13T05:11:11;18.10;99.90
10046;DHT22;5063;50.878;4.742;2023-10-13T05:13:55;18.10;99.90
10046;DHT22;5063;50.878;4.742;2023-10-13T05:16:39;18.10;99.90
10046;DHT22;5063;50.878;4.742;2023-10-13T05:19:23;18.00;99.90
10046;DHT22;5063;50.878;4.742;2023-10-13T05:22:07;18.10;99.90
10046;DHT22;5063;50.878;4.742;2023-10-13T05:24:52;18.10;99.90
10046;DHT22;5063;50.878;4.742;2023-10-13T05:27:36;18.10;99.90
10046;DHT22;5063;50.878;4.742;2023-10-13T05:30:20;18.10;99.90
10046;DHT22;5063;50.878;4.742;2023-10-13T05:33:04;18.10;99.90
10046;DHT22;5063;50.878;4.742;2023-10-13T05:35:48;18.10;99.90
10046;DHT22;5063;50.878;4.742;2023-10-13T05:38:32;18.10;99.90
10046;DHT22;5063;50.878;4.742;2023-10-13T05:41:16;18.10;99.90
10046;DHT22;5063;50.878;4.742;2023-10-13T05:44:00;18.10;99.90
10046;DHT22;5063;50.878;4.742;2023-10-13T05:46:45;18.00;99.90
10046;DHT22;5063;50.878;4.742;2023-10-13T05:49:29;18.00;99.90
10046;DHT22;5063;50.878;4.742;2023-10-13T05:52:13;17.90;99.90
10046;DHT22;5063;50.878;4.742;2023-10-13T05:54:47;17.90;99.90
10046;DHT22;5063;50.878;4.742;2023-10-13T05:57:32;17.90;99.90
10046;DHT22;5063;50.878;4.742;2023-10-13T06:00:16;17.80;99.90
10046;DHT22;5063;50.878;4.742;2023-10-13T06:03:00;17.80;99.90
10046;DHT22;5063;50.878;4.742;2023-10-13T06:05:44;17.70;99.90
10046;DHT22;5063;50.878;4.742;2023-10-13T06:08:39;17.80;99.90
10046;DHT22;5063;50.878;4.742;2023-10-13T06:11:25;17.80;99.90
10046;DHT22;5063;50.878;4.742;2023-10-13T06:14:09;17.80;99.90
10046;DHT22;5063;50.878;4.742;2023-10-13T06:16:53;17.90;99.90
10046;DHT22;5063;50.878;4.742;2023-10-13T06:19:37;17.90;99.90
10046;DHT22;5063;50.878;4.742;2023-10-13T06:22:24;17.90;99.90
10046;DHT22;5063;50.878;4.742;2023-10-13T06:25:08;18.00;99.90
10046;DHT22;5063;50.878;4.742;2023-10-13T06:27:52;18.00;99.90
10046;DHT22;5063;50.878;4.742;2023-10-13T06:30:36;18.00;99.90
10046;DHT22;5063;50.878;4.742;2023-10-13T06:33:04;18.00;99.90
10046;DHT22;5063;50.878;4.742;2023-10-13T06:35:30;18.10;99.90
10046;DHT22;5063;50.878;4.742;2023-10-13T06:37:57;18.10;99.90
10046;DHT22;5063;50.878;4.742;2023-10-13T06:40:26;18.10;99.90
10046;DHT22;5063;50.878;4.742;2023-10-13T06:42:52;18.10;99.90
10046;DHT22;5063;50.878;4.742;2023-10-13T06:45:37;18.10;99.90
10046;DHT22;5063;50.878;4.742;2023-10-13T06:48:03;18.10;99.90
10046;DHT22;5063;50.878;4.742;2023-10-13T06:50:30;18.20;99.90
10046;DHT22;5063;50.878;4.742;2023-10-13T06:53:04;18.30;99.90
10046;DHT22;5063;50.878;4.742;2023-10-13T06:55:30;18.30;99.90
10046;DHT22;5063;50.878;4.742;2023-10-13T06:58:03;18.50;99.90
10046;DHT22;5063;50.878;4.742;2023-10-13T07:00:32;18.60;99.90
10046;DHT22;5063;50.878;4.742;2023-10-13T07:03:04;18.60;99.90
10046;DHT22;5063;50.878;4.742;2023-10-13T07:05:43;18.80;99.90
10046;DHT22;5063;50.878;4.742;2023-10-13T07:08:10;19.00;99.90
10046;DHT22;5063;50.878;4.742;2023-10-13T07:10:51;19.10;99.90
10046;DHT22;5063;50.878;4.742;2023-10-13T07:13:18;19.40;99.90
10046;DHT22;5063;50.878;4.742;2023-10-13T07:15:45;19.50;99.90
10046;DHT22;5063;50.878;4.742;2023-10-13T07:18:12;19.70;99.90
10046;DHT22;5063;50.878;4.742;2023-10-13T07:20:40;19.80;99.90
10046;DHT22;5063;50.878;4.742;2023-10-13T07:23:12;19.70;99.90
10046;DHT22;5063;50.878;4.742;2023-10-13T07:25:56;19.60;99.90
10046;DHT22;5063;50.878;4.742;2023-10-13T07:28:28;19.60;99.90
10046;DHT22;5063;50.878;4.742;2023-10-13T07:30:56;19.50;99.90
10046;DHT22;5063;50.878;4.742;2023-10-13T07:33:25;19.50;99.90
10046;DHT22;5063;50.878;4.742;2023-10-13T07:36:02;19.70;99.90
10046;DHT22;5063;50.878;4.742;2023-10-13T07:38:37;19.90;99.90
10046;DHT22;5063;50.878;4.742;2023-10-13T07:41:03;20.10;99.90
10046;DHT22;5063;50.878;4.742;2023-10-13T07:43:35;20.30;99.90
10046;DHT22;5063;50.878;4.742;2023-10-13T07:46:04;20.50;99.90
10046;DHT22;5063;50.878;4.742;2023-10-13T07:48:38;20.60;99.90
10046;DHT22;5063;50.878;4.742;2023-10-13T07:51:07;20.80;99.90
10046;DHT22;5063;50.878;4.742;2023-10-13T07:53:40;21.00;99.90
10046;DHT22;5063;50.878;4.742;2023-10-13T07:56:07;21.10;99.90
10046;DHT22;5063;50.878;4.742;2023-10-13T07:58:34;20.90;99.90
10046;DHT22;5063;50.878;4.742;2023-10-13T08:01:01;20.90;99.90
10046;DHT22;5063;50.878;4.742;2023-10-13T08:03:34;21.00;99.90
10046;DHT22;5063;50.878;4.742;2023-10-13T08:06:09;21.00;99.90
10046;DHT22;5063;50.878;4.742;2023-10-13T08:08:38;21.00;99.90
10046;DHT22;5063;50.878;4.742;2023-10-13T08:11:11;21.20;99.90
10046;DHT22;5063;50.878;4.742;2023-10-13T08:13:50;21.50;99.90
10046;DHT22;5063;50.878;4.742;2023-10-13T08:16:29;21.60;99.90
10046;DHT22;5063;50.878;4.742;2023-10-13T08:19:13;21.60;99.90
10046;DHT22;5063;50.878;4.742;2023-10-13T08:21:47;21.70;99.90
10046;DHT22;5063;50.878;4.742;2023-10-13T08:24:40;21.70;99.90
10046;DHT22;5063;50.878;4.742;2023-10-13T08:27:07;21.70;99.90
10046;DHT22;5063;50.878;4.742;2023-10-13T08:29:51;21.60;99.90
10046;DHT22;5063;50.878;4.742;2023-10-13T08:32:28;21.50;99.90
10046;DHT22;5063;50.878;4.742;2023-10-13T08:34:58;21.40;99.90
10046;DHT22;5063;50.878;4.742;2023-10-13T08:37:24;21.50;99.90
10046;DHT22;5063;50.878;4.742;2023-10-13T08:39:51;21.50;99.90
10046;DHT22;5063;50.878;4.742;2023-10-13T08:47:57;21.30;99.90
10046;DHT22;5063;50.878;4.742;2023-10-13T08:50:46;21.10;99.90
10046;DHT22;5063;50.878;4.742;2023-10-13T08:53:20;21.00;99.90
10046;DHT22;5063;50.878;4.742;2023-10-13T08:58:59;21.30;99.90
10046;DHT22;5063;50.878;4.742;2023-10-13T09:01:36;21.50;99.90
10046;DHT22;5063;50.878;4.742;2023-10-13T09:04:18;21.60;99.90
10046;DHT22;5063;50.878;4.742;2023-10-13T09:06:58;21.70;99.90
10046;DHT22;5063;50.878;4.742;2023-10-13T09:12:25;21.60;99.90
10046;DHT22;5063;50.878;4.742;2023-10-13T09:15:05;21.70;99.90
10046;DHT22;5063;50.878;4.742;2023-10-13T09:17:40;21.70;99.90
10046;DHT22;5063;50.878;4.742;2023-10-13T09:20:07;21.60;99.90
10046;DHT22;5063;50.878;4.742;2023-10-13T09:22:53;21.70;99.90
10046;DHT22;5063;50.878;4.742;2023-10-13T09:25:28;21.80;99.90
10046;DHT22;5063;50.878;4.742;2023-10-13T09:28:14;21.80;99.90
10046;DHT22;5063;50.878;4.742;2023-10-13T09:30:48;21.80;99.90
10046;DHT22;5063;50.878;4.742;2023-10-13T09:33:18;21.80;99.90
10046;DHT22;5063;50.878;4.742;2023-10-13T09:35:54;21.80;99.90
10046;DHT22;5063;50.878;4.742;2023-10-13T09:38:20;21.90;99.90
10046;DHT22;5063;50.878;4.742;2023-10-13T09:40:49;21.90;99.90
10046;DHT22;5063;50.878;4.742;2023-10-13T09:43:26;22.00;99.90
10046;DHT22;5063;50.878;4.742;2023-10-13T09:46:01;22.00;99.90
10046;DHT22;5063;50.878;4.742;2023-10-13T09:48:45;22.00;99.90
10046;DHT22;5063;50.878;4.742;2023-10-13T09:51:13;22.00;99.90
10046;DHT22;5063;50.878;4.742;2023-10-13T09:53:41;22.20;99.90
10046;DHT22;5063;50.878;4.742;2023-10-13T09:56:18;22.20;99.90
10046;DHT22;5063;50.878;4.742;2023-10-13T09:58:51;22.20;99.90
10046;DHT22;5063;50.878;4.742;2023-10-13T10:01:24;22.30;99.90
10046;DHT22;5063;50.878;4.742;2023-10-13T10:04:13;22.40;99.90
10046;DHT22;5063;50.878;4.742;2023-10-13T10:06:56;22.30;99.90
10046;DHT22;5063;50.878;4.742;2023-10-13T10:09:29;22.30;99.90
10046;DHT22;5063;50.878;4.742;2023-10-13T10:15:02;22.70;99.90
10046;DHT22;5063;50.878;4.742;2023-10-13T10:17:42;23.10;99.90
10046;DHT22;5063;50.878;4.742;2023-10-13T10:20:09;23.40;99.90
10046;DHT22;5063;50.878;4.742;2023-10-13T10:22:56;23.60;99.90
10046;DHT22;5063;50.878;4.742;2023-10-13T10:25:32;23.60;99.90
10046;DHT22;5063;50.878;4.742;2023-10-13T10:28:04;23.60;99.90
10046;DHT22;5063;50.878;4.742;2023-10-13T10:30:37;23.60;99.90
10046;DHT22;5063;50.878;4.742;2023-10-13T10:33:05;23.40;99.90
10046;DHT22;5063;50.878;4.742;2023-10-13T10:35:42;23.50;99.90
10046;DHT22;5063;50.878;4.742;2023-10-13T10:38:15;23.50;99.90
10046;DHT22;5063;50.878;4.742;2023-10-13T10:41:01;23.70;99.90
10046;DHT22;5063;50.878;4.742;2023-10-13T10:46:29;24.10;99.90
10046;DHT22;5063;50.878;4.742;2023-10-13T10:49:05;24.00;99.90
10046;DHT22;5063;50.878;4.742;2023-10-13T10:51:36;23.90;99.90
10046;DHT22;5063;50.878;4.742;2023-10-13T10:54:18;23.60;99.90
10046;DHT22;5063;50.878;4.742;2023-10-13T10:56:46;23.60;99.90
10046;DHT22;5063;50.878;4.742;2023-10-13T10:59:18;23.50;99.90
10046;DHT22;5063;50.878;4.742;2023-10-13T11:01:45;23.70;99.90
10046;DHT22;5063;50.878;4.742;2023-10-13T11:04:18;23.70;99.90
10046;DHT22;5063;50.878;4.742;2023-10-13T11:06:55;23.90;99.90
10046;DHT22;5063;50.878;4.742;2023-10-13T11:09:25;23.90;99.90
10046;DHT22;5063;50.878;4.742;2023-10-13T11:12:17;24.20;99.90
10046;DHT22;5063;50.878;4.742;2023-10-13T11:15:06;24.50;99.90
10046;DHT22;5063;50.878;4.742;2023-10-13T11:17:51;24.70;99.90
10046;DHT22;5063;50.878;4.742;2023-10-13T11:20:20;24.90;99.90
10046;DHT22;5063;50.878;4.742;2023-10-13T11:22:59;25.00;99.90
10046;DHT22;5063;50.878;4.742;2023-10-13T11:25:31;24.80;99.90
10046;DHT22;5063;50.878;4.742;2023-10-13T11:28:14;24.80;99.90
10046;DHT22;5063;50.878;4.742;2023-10-13T11:30:49;24.60;99.90
10046;DHT22;5063;50.878;4.742;2023-10-13T11:33:16;24.50;99.90
10046;DHT22;5063;50.878;4.742;2023-10-13T11:35:54;24.60;99.90
10046;DHT22;5063;50.878;4.742;2023-10-13T11:40:59;24.50;99.90
10046;DHT22;5063;50.878;4.742;2023-10-13T11:46:06;24.60;99.90
10046;DHT22;5063;50.878;4.742;2023-10-13T11:48:34;24.60;99.90
10046;DHT22;5063;50.878;4.742;2023-10-13T11:51:20;24.80;99.90
10046;DHT22;5063;50.878;4.742;2023-10-13T11:53:51;24.60;99.90
10046;DHT22;5063;50.878;4.742;2023-10-13T11:56:18;24.60;99.90
10046;DHT22;5063;50.878;4.742;2023-10-13T11:58:47;24.60;99.90
10046;DHT22;5063;50.878;4.742;2023-10-13T12:01:14;24.60;99.90
10046;DHT22;5063;50.878;4.742;2023-10-13T12:03:40;24.60;99.90
10046;DHT22;5063;50.878;4.742;2023-10-13T12:06:24;24.60;99.90
10046;DHT22;5063;50.878;4.742;2023-10-13T12:11:43;24.60;99.90
10046;DHT22;5063;50.878;4.742;2023-10-13T12:14:14;24.60;99.90
10046;DHT22;5063;50.878;4.742;2023-10-13T12:16:47;24.60;99.90
10046;DHT22;5063;50.878;4.742;2023-10-13T12:19:17;24.60;99.90
10046;DHT22;5063;50.878;4.742;2023-10-13T12:21:44;24.50;99.90
10046;DHT22;5063;50.878;4.742;2023-10-13T12:24:10;24.40;99.90
10046;DHT22;5063;50.878;4.742;2023-10-13T12:26:57;24.20;99.90
10046;DHT22;5063;50.878;4.742;2023-10-13T12:29:23;24.20;99.90
10046;DHT22;5063;50.878;4.742;2023-10-13T12:32:00;24.00;99.90
10046;DHT22;5063;50.878;4.742;2023-10-13T12:34:35;24.00;99.90
10046;DHT22;5063;50.878;4.742;2023-10-13T12:37:19;23.90;99.90
10046;DHT22;5063;50.878;4.742;2023-10-13T12:40:08;23.80;99.90
10046;DHT22;5063;50.878;4.742;2023-10-13T12:42:53;23.70;99.90
10046;DHT22;5063;50.878;4.742;2023-10-13T12:45:41;23.60;99.90
10046;DHT22;5063;50.878;4.742;2023-10-13T12:48:26;23.40;99.90
10046;DHT22;5063;50.878;4.742;2023-10-13T12:51:10;23.30;99.90
10046;DHT22;5063;50.878;4.742;2023-10-13T12:53:56;23.00;99.90
10046;DHT22;5063;50.878;4.742;2023-10-13T12:56:30;23.10;99.90
10046;DHT22;5063;50.878;4.742;2023-10-13T12:58:56;23.00;99.90
10046;DHT22;5063;50.878;4.742;2023-10-13T13:01:26;23.00;99.90
10046;DHT22;5063;50.878;4.742;2023-10-13T13:03:58;23.00;99.90
10046;DHT22;5063;50.878;4.742;2023-10-13T13:06:27;23.00;99.90
10046;DHT22;5063;50.878;4.742;2023-10-13T13:08:59;22.90;99.90
10046;DHT22;5063;50.878;4.742;2023-10-13T13:11:26;22.80;99.90
10046;DHT22;5063;50.878;4.742;2023-10-13T13:13:55;22.90;99.90
10046;DHT22;5063;50.878;4.742;2023-10-13T13:16:21;22.80;99.90
10046;DHT22;5063;50.878;4.742;2023-10-13T13:18:50;22.80;99.90
10046;DHT22;5063;50.878;4.742;2023-10-13T13:21:16;22.80;99.90
10046;DHT22;5063;50.878;4.742;2023-10-13T13:23:52;22.80;99.90
10046;DHT22;5063;50.878;4.742;2023-10-13T13:26:22;22.90;99.90
10046;DHT22;5063;50.878;4.742;2023-10-13T13:28:48;23.00;99.90
10046;DHT22;5063;50.878;4.742;2023-10-13T13:31:20;22.90;99.90
10046;DHT22;5063;50.878;4.742;2023-10-13T13:33:56;23.10;99.90
10046;DHT22;5063;50.878;4.742;2023-10-13T13:36:22;23.10;99.90
10046;DHT22;5063;50.878;4.742;2023-10-13T13:38:48;23.20;99.90
10046;DHT22;5063;50.878;4.742;2023-10-13T13:41:20;23.30;99.90
10046;DHT22;5063;50.878;4.742;2023-10-13T13:43:48;23.40;99.90
10046;DHT22;5063;50.878;4.742;2023-10-13T13:46:21;23.40;99.90
10046;DHT22;5063;50.878;4.742;2023-10-13T13:48:51;23.40;99.90
10046;DHT22;5063;50.878;4.742;2023-10-13T13:51:24;23.20;99.90
10046;DHT22;5063;50.878;4.742;2023-10-13T13:53:54;23.20;99.90
10046;DHT22;5063;50.878;4.742;2023-10-13T13:56:20;23.20;99.90
10046;DHT22;5063;50.878;4.742;2023-10-13T13:58:49;23.20;99.90
10046;DHT22;5063;50.878;4.742;2023-10-13T14:01:21;23.20;99.90
10046;DHT22;5063;50.878;4.742;2023-10-13T14:03:49;23.20;99.90
10046;DHT22;5063;50.878;4.742;2023-10-13T14:06:20;23.20;99.90
10046;DHT22;5063;50.878;4.742;2023-10-13T14:08:50;23.30;99.90
10046;DHT22;5063;50.878;4.742;2023-10-13T14:11:24;23.40;99.90
10046;DHT22;5063;50.878;4.742;2023-10-13T14:16:41;23.60;99.90
10046;DHT22;5063;50.878;4.742;2023-10-13T14:19:16;23.70;99.90
10046;DHT22;5063;50.878;4.742;2023-10-13T14:21:46;23.70;99.90
10046;DHT22;5063;50.878;4.742;2023-10-13T14:24:22;23.70;99.90
10046;DHT22;5063;50.878;4.742;2023-10-13T14:26:54;23.60;99.90
10046;DHT22;5063;50.878;4.742;2023-10-13T14:29:20;23.70;99.90
10046;DHT22;5063;50.878;4.742;2023-10-13T14:31:46;23.60;99.90
10046;DHT22;5063;50.878;4.742;2023-10-13T14:34:14;23.60;99.90
10046;DHT22;5063;50.878;4.742;2023-10-13T14:36:40;23.60;99.90
10046;DHT22;5063;50.878;4.742;2023-10-13T14:39:06;23.40;99.90
10046;DHT22;5063;50.878;4.742;2023-10-13T14:41:36;23.40;99.90
10046;DHT22;5063;50.878;4.742;2023-10-13T14:44:03;23.40;99.90
10046;DHT22;5063;50.878;4.742;2023-10-13T14:46:32;23.40;99.90
10046;DHT22;5063;50.878;4.742;2023-10-13T14:49:02;23.30;99.90
10046;DHT22;5063;50.878;4.742;2023-10-13T14:51:28;23.30;99.90
10046;DHT22;5063;50.878;4.742;2023-10-13T14:53:55;23.20;99.90
10046;DHT22;5063;50.878;4.742;2023-10-13T14:56:25;23.10;99.90
10046;DHT22;5063;50.878;4.742;2023-10-13T14:58:52;23.00;99.90
10046;DHT22;5063;50.878;4.742;2023-10-13T15:01:22;22.90;99.90
10046;DHT22;5063;50.878;4.742;2023-10-13T15:03:52;22.80;99.90
10046;DHT22;5063;50.878;4.742;2023-10-13T15:06:25;22.60;99.90
10046;DHT22;5063;50.878;4.742;2023-10-13T15:08:55;22.50;99.90
10046;DHT22;5063;50.878;4.742;2023-10-13T15:11:25;22.40;99.90
10046;DHT22;5063;50.878;4.742;2023-10-13T15:14:04;22.40;99.90
10046;DHT22;5063;50.878;4.742;2023-10-13T15:16:33;22.20;99.90
10046;DHT22;5063;50.878;4.742;2023-10-13T15:18:59;22.20;99.90
10046;DHT22;5063;50.878;4.742;2023-10-13T15:21:27;22.00;99.90
10046;DHT22;5063;50.878;4.742;2023-10-13T15:24:03;21.80;99.90
10046;DHT22;5063;50.878;4.742;2023-10-13T15:26:33;21.70;99.90
10046;DHT22;5063;50.878;4.742;2023-10-13T15:29:07;21.50;99.90
10046;DHT22;5063;50.878;4.742;2023-10-13T15:31:38;21.40;99.90
10046;DHT22;5063;50.878;4.742;2023-10-13T15:34:11;21.30;99.90
10046;DHT22;5063;50.878;4.742;2023-10-13T15:36:40;21.20;99.90
10046;DHT22;5063;50.878;4.742;2023-10-13T15:39:11;21.20;99.90
10046;DHT22;5063;50.878;4.742;2023-10-13T15:41:37;21.10;99.90
10046;DHT22;5063;50.878;4.742;2023-10-13T15:44:04;21.00;99.90
10046;DHT22;5063;50.878;4.742;2023-10-13T15:46:36;21.00;99.90
10046;DHT22;5063;50.878;4.742;2023-10-13T15:49:02;20.90;99.90
10046;DHT22;5063;50.878;4.742;2023-10-13T15:51:38;20.80;99.90
10046;DHT22;5063;50.878;4.742;2023-10-13T15:54:04;20.70;99.90
10046;DHT22;5063;50.878;4.742;2023-10-13T15:56:30;20.60;99.90
10046;DHT22;5063;50.878;4.742;2023-10-13T15:59:01;20.60;99.90
10046;DHT22;5063;50.878;4.742;2023-10-13T16:01:27;20.40;99.90
10046;DHT22;5063;50.878;4.742;2023-10-13T16:03:54;20.40;99.90
10046;DHT22;5063;50.878;4.742;2023-10-13T16:06:20;20.40;99.90
10046;DHT22;5063;50.878;4.742;2023-10-13T16:08:53;20.30;99.90
10046;DHT22;5063;50.878;4.742;2023-10-13T16:11:21;20.30;99.90
10046;DHT22;5063;50.878;4.742;2023-10-13T16:13:48;20.20;99.90
10046;DHT22;5063;50.878;4.742;2023-10-13T16:16:22;20.30;99.90
10046;DHT22;5063;50.878;4.742;2023-10-13T16:18:49;20.30;99.90
10046;DHT22;5063;50.878;4.742;2023-10-13T16:21:15;20.30;99.90
10046;DHT22;5063;50.878;4.742;2023-10-13T16:23:41;20.30;99.90
10046;DHT22;5063;50.878;4.742;2023-10-13T16:26:09;20.30;99.90
10046;DHT22;5063;50.878;4.742;2023-10-13T16:28:38;20.30;99.90
10046;DHT22;5063;50.878;4.742;2023-10-13T16:31:07;20.30;99.90
10046;DHT22;5063;50.878;4.742;2023-10-13T16:33:37;20.30;99.90
10046;DHT22;5063;50.878;4.742;2023-10-13T16:36:05;20.30;99.90
10046;DHT22;5063;50.878;4.742;2023-10-13T16:38:37;20.20;99.90
10046;DHT22;5063;50.878;4.742;2023-10-13T16:41:04;20.20;99.90
10046;DHT22;5063;50.878;4.742;2023-10-13T16:43:35;20.20;99.90
10046;DHT22;5063;50.878;4.742;2023-10-13T16:46:02;20.10;99.90
10046;DHT22;5063;50.878;4.742;2023-10-13T16:48:32;20.00;99.90
10046;DHT22;5063;50.878;4.742;2023-10-13T16:50:59;20.00;99.90
10046;DHT22;5063;50.878;4.742;2023-10-13T16:53:25;19.90;99.90
10046;DHT22;5063;50.878;4.742;2023-10-13T16:55:51;19.80;99.90
10046;DHT22;5063;50.878;4.742;2023-10-13T16:58:17;19.80;99.90